Time;durP1;ratioP1;P1;durP2;ratioP2;P2;SDS_P1;SDS_P2;PMS_P1;PMS_P2;Temp;Humidity;BMP_temperature;BMP_pressure;BME280_temperature;BME280_humidity;BME280_pressure;Samples;Min_cycle;Max_cycle;Signal;HPM_P1;HPM_P2
2023/05/05 00:01:11;;;;;;;3.93;1.90;;;;;;;7.85;99.32;101095.41;5044327;28;20021;-69
2023/05/05 00:03:36;;;;;;;6.80;1.80;;;;;;;7.72;100.00;101121.38;5043478;28;20090;-70
2023/05/05 00:06:03;;;;;;;10.43;2.77;;;;;;;7.79;100.00;101165.03;5044101;28;20491;-70
2023/05/05 00:08:28;;;;;;;12.65;2.95;;;;;;;7.76;100.00;101210.50;5043018;28;20039;-72
2023/05/05 00:10:55;;;;;;;8.40;3.03;;;;;;;7.79;100.00;101245.63;5044557;28;20028;-75
2023/05/05 00:13:21;;;;;;;5.43;2.00;;;;;;;7.89;100.00;101263.44;5046022;28;20120;-73
2023/05/05 00:15:48;;;;;;;7.25;2.40;;;;;;;7.87;100.00;101270.72;5047442;28;20527;-72
2023/05/05 00:18:16;;;;;;;6.35;1.83;;;;;;;7.87;100.00;101284.84;5048091;28;20210;-75
2023/05/05 00:20:42;;;;;;;8.40;2.08;;;;;;;7.90;100.00;101313.00;5047888;28;20388;-70
2023/05/05 00:23:08;;;;;;;8.65;3.20;;;;;;;7.72;100.00;101304.75;5062467;28;20492;-70
2023/05/05 00:25:33;;;;;;;6.70;2.10;;;;;;;7.87;100.00;101401.84;5047705;28;20025;-70
2023/05/05 00:27:59;;;;;;;16.63;2.93;;;;;;;7.80;100.00;101390.88;5046473;28;20318;-72
2023/05/05 00:30:25;;;;;;;9.43;2.28;;;;;;;7.90;100.00;101433.47;5047849;28;20599;-75
2023/05/05 00:32:50;;;;;;;9.32;4.05;;;;;;;7.91;100.00;101423.69;5045166;28;20069;-70
2023/05/05 00:35:19;;;;;;;9.50;2.60;;;;;;;7.72;100.00;101421.72;5046411;28;20028;-70
2023/05/05 00:37:45;;;;;;;10.27;2.63;;;;;;;7.80;100.00;101459.97;5046229;28;20029;-75
2023/05/05 00:40:11;;;;;;;10.55;2.50;;;;;;;7.63;100.00;101460.50;5046689;28;20098;-69
2023/05/05 00:42:43;;;;;;;;;;;;;;;7.71;100.00;101494.47;5047613;28;20087;-73
2023/05/05 00:45:11;;;;;;;14.82;3.25;;;;;;;7.63;100.00;101480.94;5047214;28;20524;-75
2023/05/05 00:47:37;;;;;;;9.40;3.67;;;;;;;7.58;100.00;101499.91;5046683;28;20051;-69
2023/05/05 00:50:05;;;;;;;17.05;3.60;;;;;;;7.46;100.00;101511.53;5046512;28;20032;-69
2023/05/05 00:52:31;;;;;;;10.02;3.25;;;;;;;7.59;100.00;101558.25;5045689;28;20037;-69
2023/05/05 00:54:56;;;;;;;10.32;3.47;;;;;;;7.56;100.00;101549.69;5062666;28;20215;-69
2023/05/05 00:57:24;;;;;;;15.85;4.35;;;;;;;7.53;100.00;101545.47;5046462;28;20483;-70
2023/05/05 00:59:50;;;;;;;9.63;3.65;;;;;;;7.45;100.00;101553.22;5045927;28;20025;-76
2023/05/05 01:02:15;;;;;;;14.10;4.95;;;;;;;7.56;100.00;101581.56;5047163;28;20488;-73
2023/05/05 01:04:41;;;;;;;12.00;4.13;;;;;;;7.66;100.00;101560.44;5045475;28;20036;-69
2023/05/05 01:07:16;;;;;;;9.38;3.95;;;;;;;7.49;100.00;101538.72;5045957;28;20032;-70
2023/05/05 01:09:51;;;;;;;15.15;4.90;;;;;;;7.57;100.00;101568.16;5045973;28;20163;-72
2023/05/05 01:12:25;;;;;;;13.68;5.57;;;;;;;7.55;100.00;101586.03;5046726;28;20040;-70
2023/05/05 01:15:14;;;;;;;16.08;5.35;;;;;;;7.34;100.00;101569.16;5046404;28;20036;-69
2023/05/05 01:17:47;;;;;;;14.57;5.38;;;;;;;7.43;100.00;101613.59;5045780;28;20036;-74
2023/05/05 01:20:32;;;;;;;23.48;5.28;;;;;;;7.36;100.00;101599.09;5039639;28;20037;-69
2023/05/05 01:23:04;;;;;;;17.50;6.65;;;;;;;7.32;100.00;101617.09;5046333;28;20654;-69
2023/05/05 01:26:04;;;;;;;14.25;5.93;;;;;;;7.46;100.00;101629.28;5044300;28;20040;-70
2023/05/05 01:28:59;;;;;;;14.10;5.90;;;;;;;7.34;100.00;101630.25;5056951;28;20488;-71
2023/05/05 01:31:55;;;;;;;16.38;6.95;;;;;;;7.27;100.00;101629.03;5045382;28;20086;-71
2023/05/05 01:34:33;;;;;;;17.98;6.80;;;;;;;7.21;100.00;101616.22;5055134;28;20040;-69
2023/05/05 01:37:10;;;;;;;17.85;7.18;;;;;;;7.29;100.00;101662.50;5044770;28;20025;-72
2023/05/05 01:39:37;;;;;;;25.10;8.73;;;;;;;7.31;100.00;101657.91;5049845;28;20519;-71
2023/05/05 01:42:10;;;;;;;20.15;7.50;;;;;;;7.39;100.00;101646.69;5047044;28;20057;-72
2023/05/05 01:44:37;;;;;;;16.70;7.30;;;;;;;7.36;100.00;101629.16;5044886;28;20100;-72
2023/05/05 01:47:03;;;;;;;;;;;;;;;7.24;100.00;101638.09;5045183;28;20112;-69
2023/05/05 01:49:30;;;;;;;22.10;7.57;;;;;;;7.12;100.00;101641.72;5046491;28;20316;-69
2023/05/05 01:51:57;;;;;;;19.35;7.28;;;;;;;7.09;100.00;101648.06;5044686;28;20442;-70
2023/05/05 01:54:24;;;;;;;21.58;7.65;;;;;;;7.12;100.00;101674.41;5044510;28;20402;-69
2023/05/05 01:56:53;;;;;;;19.38;7.47;;;;;;;6.93;100.00;101659.03;5044412;28;20044;-70
2023/05/05 01:59:19;;;;;;;19.42;7.18;;;;;;;7.10;100.00;101692.28;5045088;28;20032;-70
2023/05/05 02:01:47;;;;;;;17.92;7.13;;;;;;;7.02;100.00;101673.41;5044682;28;20028;-74
2023/05/05 02:04:15;;;;;;;18.83;8.77;;;;;;;7.07;100.00;101671.28;5033564;28;20511;-70
2023/05/05 02:06:43;;;;;;;18.45;7.53;;;;;;;7.07;100.00;101660.66;5041423;28;20021;-69
2023/05/05 02:09:11;;;;;;;16.15;7.82;;;;;;;7.10;100.00;101644.47;5044168;28;20028;-71
2023/05/05 02:11:38;;;;;;;23.58;8.07;;;;;;;7.09;100.00;101624.19;5060842;28;20521;-70
2023/05/05 02:14:04;;;;;;;;;;;;;;;7.08;100.00;101640.25;5044292;28;20270;-69
2023/05/05 02:16:30;;;;;;;20.58;7.88;;;;;;;7.02;100.00;101628.28;5052899;28;19917;-73
2023/05/05 02:19:01;;;;;;;12.18;6.22;;;;;;;7.02;100.00;101636.22;5045661;28;20115;-70
2023/05/05 02:21:27;;;;;;;15.02;7.35;;;;;;;7.04;100.00;101639.63;5045405;28;20029;-72
2023/05/05 02:23:52;;;;;;;14.70;6.85;;;;;;;6.98;100.00;101632.16;5043361;28;20071;-72
2023/05/05 02:26:20;;;;;;;18.97;7.47;;;;;;;7.03;100.00;101629.97;5043586;28;20029;-72
2023/05/05 02:29:09;;;;;;;18.38;7.60;;;;;;;7.08;100.00;101614.53;5060625;28;20033;-70
2023/05/05 02:31:42;;;;;;;16.10;6.38;;;;;;;7.16;100.00;101604.19;5060885;28;20043;-74
2023/05/05 02:34:10;;;;;;;13.77;5.70;;;;;;;7.16;100.00;101584.72;5045171;28;20417;-72
2023/05/05 02:36:38;;;;;;;24.25;6.65;;;;;;;7.03;100.00;101581.34;5043579;28;20029;-71
2023/05/05 02:39:11;;;;;;;20.33;6.57;;;;;;;6.90;100.00;101571.66;5060665;28;20526;-74
2023/05/05 02:41:40;;;;;;;21.30;6.35;;;;;;;7.03;100.00;101603.44;5043602;28;20029;-70
2023/05/05 02:44:14;;;;;;;15.10;6.65;;;;;;;7.06;100.00;101600.53;5043562;28;20625;-72
2023/05/05 02:46:41;;;;;;;21.23;6.55;;;;;;;7.11;100.00;101595.69;5044088;28;20037;-69
2023/05/05 02:49:06;;;;;;;21.90;6.15;;;;;;;6.92;100.00;101582.16;5060385;28;20025;-73
2023/05/05 02:51:32;;;;;;;20.87;7.30;;;;;;;6.89;100.00;101593.88;5043684;28;20020;-69
2023/05/05 02:54:03;;;;;;;20.30;7.30;;;;;;;6.85;100.00;101596.88;5042974;28;20052;-70
2023/05/05 02:56:42;;;;;;;16.98;7.78;;;;;;;6.84;100.00;101605.81;5045249;28;20139;-78
2023/05/05 02:59:46;;;;;;;15.52;6.47;;;;;;;6.90;100.00;101615.94;5043692;28;20143;-70
2023/05/05 03:02:39;;;;;;;13.63;6.95;;;;;;;6.96;100.00;101607.53;5035182;28;20437;-69
2023/05/05 03:05:09;;;;;;;18.73;7.80;;;;;;;6.90;100.00;101597.34;5043553;28;20444;-71
2023/05/05 03:07:46;;;;;;;15.50;6.75;;;;;;;6.93;100.00;101607.72;5043479;28;20041;-69
2023/05/05 03:10:16;;;;;;;16.23;6.72;;;;;;;6.98;100.00;101581.69;5043852;28;20044;-69
2023/05/05 03:12:54;;;;;;;18.13;6.75;;;;;;;7.12;100.00;101578.81;5043252;28;20052;-74
2023/05/05 03:15:34;;;;;;;14.27;6.25;;;;;;;6.83;100.00;101540.41;5032538;28;20026;-69
2023/05/05 03:18:02;;;;;;;16.83;6.28;;;;;;;6.91;100.00;101567.22;5059172;28;20403;-69
2023/05/05 03:20:29;;;;;;;19.25;7.78;;;;;;;6.95;100.00;101571.31;5043883;28;20454;-68
2023/05/05 03:22:57;;;;;;;16.70;6.78;;;;;;;7.02;100.00;101561.06;5042499;28;20154;-69
2023/05/05 03:25:42;;;;;;;17.13;7.07;;;;;;;6.89;100.00;101550.56;5043407;28;20037;-69
2023/05/05 03:28:08;;;;;;;;;;;;;;;6.88;100.00;101557.69;5060206;28;20036;-70
2023/05/05 03:30:34;;;;;;;15.45;6.20;;;;;;;6.91;100.00;101559.25;5043618;28;19912;-75
2023/05/05 03:32:59;;;;;;;19.73;7.82;;;;;;;6.92;100.00;101560.94;5042800;28;20055;-73
2023/05/05 03:35:26;;;;;;;19.30;8.07;;;;;;;6.87;100.00;101552.47;5042653;28;20127;-74
2023/05/05 03:37:51;;;;;;;19.33;8.30;;;;;;;6.94;100.00;101569.63;5043106;28;20214;-69
2023/05/05 03:40:17;;;;;;;15.05;6.28;;;;;;;6.85;100.00;101557.06;5043227;28;20040;-69
2023/05/05 03:42:42;;;;;;;22.63;6.90;;;;;;;6.92;100.00;101568.91;5042845;28;20044;-77
2023/05/05 03:45:08;;;;;;;19.13;7.43;;;;;;;6.72;100.00;101554.50;5043180;28;20033;-69
2023/05/05 03:47:33;;;;;;;15.40;6.63;;;;;;;6.75;100.00;101565.72;5042545;28;20037;-76
2023/05/05 03:49:59;;;;;;;19.10;7.33;;;;;;;6.83;100.00;101573.09;5042701;28;20411;-74
2023/05/05 03:52:25;;;;;;;19.85;7.80;;;;;;;6.82;100.00;101583.84;5043969;28;20267;-71
2023/05/05 03:54:50;;;;;;;16.63;7.40;;;;;;;6.82;100.00;101578.53;5042726;28;20496;-71
2023/05/05 03:57:16;;;;;;;;;;;;;;;6.83;100.00;101573.09;5043763;28;20103;-71
2023/05/05 03:59:42;;;;;;;19.63;7.47;;;;;;;6.90;100.00;101562.84;5042714;28;19913;-71
2023/05/05 04:02:08;;;;;;;26.38;8.43;;;;;;;6.79;100.00;101563.69;5042507;28;20365;-71
2023/05/05 04:04:33;;;;;;;23.47;8.13;;;;;;;6.89;100.00;101571.78;5042835;28;21015;-69
2023/05/05 04:06:59;;;;;;;19.70;7.07;;;;;;;6.74;100.00;101553.44;5043941;28;20050;-74
2023/05/05 04:09:24;;;;;;;17.77;6.38;;;;;;;6.90;100.00;101562.84;5042849;28;20279;-73
2023/05/05 04:11:49;;;;;;;23.50;7.60;;;;;;;6.84;100.00;101552.72;5042796;28;20033;-70
2023/05/05 04:14:15;;;;;;;48.55;6.63;;;;;;;6.87;100.00;101548.00;5042661;28;20511;-70
2023/05/05 04:16:41;;;;;;;18.20;6.50;;;;;;;7.02;100.00;101561.88;5043086;28;20041;-69
2023/05/05 04:19:06;;;;;;;20.00;5.93;;;;;;;7.00;100.00;101557.66;5042780;28;20400;-71
2023/05/05 04:21:32;;;;;;;14.40;6.47;;;;;;;6.88;100.00;101560.34;5044014;28;20051;-69
2023/05/05 04:23:57;;;;;;;24.05;6.63;;;;;;;7.01;100.00;101554.91;5041869;28;20041;-71
2023/05/05 04:26:23;;;;;;;18.88;5.57;;;;;;;6.97;100.00;101534.88;5042852;28;20469;-72
2023/05/05 04:28:50;;;;;;;;;;;;;;;7.03;100.00;101545.00;5044180;28;20056;-71
2023/05/05 04:31:16;;;;;;;17.60;5.88;;;;;;;7.03;100.00;101529.09;5042806;28;19917;-70
2023/05/05 04:33:43;;;;;;;18.23;5.53;;;;;;;6.97;100.00;101526.91;5041845;28;20507;-70
2023/05/05 04:36:08;;;;;;;1999.90;964.22;;;;;;;6.97;100.00;101537.50;5042049;28;20029;-71
2023/05/05 04:38:33;;;;;;;1999.90;895.93;;;;;;;7.02;100.00;101543.31;5042745;28;20474;-69
2023/05/05 04:41:05;;;;;;;1999.90;881.28;;;;;;;7.03;100.00;101536.22;5042444;28;20035;-71
2023/05/05 04:43:30;;;;;;;1999.90;775.53;;;;;;;7.01;100.00;101546.94;5042124;28;20029;-70
2023/05/05 04:45:56;;;;;;;1999.90;922.38;;;;;;;7.14;100.00;101552.13;5042283;28;20051;-70
2023/05/05 04:48:25;;;;;;;1999.90;837.67;;;;;;;7.06;100.00;101528.84;5042143;28;20063;-70
2023/05/05 04:50:50;;;;;;;1999.90;943.77;;;;;;;7.12;100.00;101546.94;5058804;28;20064;-71
2023/05/05 04:53:16;;;;;;;1999.90;836.47;;;;;;;7.21;100.00;101556.00;5042084;28;20032;-70
2023/05/05 04:55:42;;;;;;;1999.90;731.45;;;;;;;7.15;100.00;101546.69;5058721;28;20041;-70
2023/05/05 04:58:07;;;;;;;1999.90;884.27;;;;;;;7.08;100.00;101528.72;5042416;28;20025;-70
2023/05/05 05:00:34;;;;;;;1999.90;753.80;;;;;;;7.29;100.00;101539.47;5061561;28;20523;-71
2023/05/05 05:03:00;;;;;;;1999.90;792.92;;;;;;;7.33;100.00;101541.75;5045593;28;20037;-70
2023/05/05 05:05:25;;;;;;;1999.90;747.50;;;;;;;7.34;100.00;101526.66;5047427;28;20059;-70
2023/05/05 05:07:50;;;;;;;1999.90;783.20;;;;;;;7.29;100.00;101505.78;5046245;28;20040;-71
2023/05/05 05:10:17;;;;;;;1999.90;926.03;;;;;;;7.25;100.00;101501.66;5046552;28;20036;-70
2023/05/05 05:12:42;;;;;;;1999.90;791.38;;;;;;;7.38;100.00;101498.88;5059241;28;20046;-70
2023/05/05 05:15:08;;;;;;;1999.90;708.87;;;;;;;7.45;100.00;101489.44;5045936;28;20029;-70
2023/05/05 05:17:33;;;;;;;1999.90;725.20;;;;;;;7.73;100.00;101465.94;5046163;28;20028;-70
2023/05/05 05:20:03;;;;;;;1999.90;758.22;;;;;;;8.03;100.00;101447.44;5062504;28;20048;-71
2023/05/05 05:22:30;;;;;;;1999.90;848.50;;;;;;;7.93;100.00;101393.31;5045314;28;20032;-71
2023/05/05 05:24:56;;;;;;;1999.90;746.60;;;;;;;8.44;100.00;101379.22;5045228;28;20021;-70
2023/05/05 05:27:21;;;;;;;1999.90;828.83;;;;;;;8.03;100.00;101277.25;5062158;28;20036;-70
2023/05/05 05:29:50;;;;;;;1999.90;864.13;;;;;;;8.53;100.00;101323.53;5061720;28;20298;-71
2023/05/05 05:32:15;;;;;;;;;;;;;;;8.42;100.00;101272.09;5044768;28;20025;-71
2023/05/05 05:34:41;;;;;;;1999.90;769.88;;;;;;;8.90;100.00;101219.91;5061713;28;19920;-70
2023/05/05 05:37:08;;;;;;;1999.90;696.05;;;;;;;9.16;100.00;101150.91;5045263;28;20031;-70
2023/05/05 05:39:33;;;;;;;1999.90;752.80;;;;;;;8.82;100.00;100975.66;5045073;28;20037;-71
2023/05/05 05:41:59;;;;;;;1999.90;560.15;;;;;;;9.02;100.00;100932.97;5043396;28;20029;-71
2023/05/05 05:44:24;;;;;;;1999.90;803.90;;;;;;;9.25;100.00;100853.50;5061619;28;20127;-71
2023/05/05 05:46:50;;;;;;;1999.90;809.33;;;;;;;8.88;100.00;100713.31;5045556;28;20029;-72
2023/05/05 05:49:16;;;;;;;1999.90;951.95;;;;;;;8.96;100.00;100724.03;5044825;28;20124;-71
2023/05/05 05:51:41;;;;;;;1999.90;705.70;;;;;;;8.61;100.00;100735.50;5044946;28;20434;-71
2023/05/05 05:54:07;;;;;;;1999.90;668.60;;;;;;;9.79;100.00;100834.81;5044489;28;20021;-73
2023/05/05 05:56:32;;;;;;;1999.90;842.07;;;;;;;9.71;100.00;100615.13;5045153;28;20411;-72
2023/05/05 05:58:58;;;;;;;1999.90;834.23;;;;;;;9.84;100.00;100549.88;5044315;28;20025;-72
2023/05/05 06:01:23;;;;;;;1999.90;937.43;;;;;;;9.82;100.00;100413.22;5045059;28;20056;-72
2023/05/05 06:03:48;;;;;;;1999.90;891.70;;;;;;;9.83;100.00;100388.22;5043502;28;20047;-68
2023/05/05 06:06:14;;;;;;;1999.90;694.80;;;;;;;9.60;100.00;100420.84;5061569;28;20082;-72
2023/05/05 06:08:40;;;;;;;1900.70;286.23;;;;;;;10.20;100.00;100506.91;5044967;28;20472;-73
2023/05/05 06:11:05;;;;;;;542.23;195.03;;;;;;;10.97;100.00;100361.28;5045765;28;20035;-73
2023/05/05 06:13:31;;;;;;;479.83;196.97;;;;;;;10.16;100.00;100127.63;5044388;28;20021;-71
2023/05/05 06:15:56;;;;;;;1166.35;282.90;;;;;;;9.94;100.00;100298.03;5060771;28;20028;-73
2023/05/05 06:18:22;;;;;;;739.73;158.77;;;;;;;9.92;100.00;100328.53;5044529;28;20086;-71
2023/05/05 06:20:51;;;;;;;1916.80;227.73;;;;;;;9.44;100.00;100263.63;5045830;28;20045;-72
2023/05/05 06:23:17;;;;;;;1926.40;296.17;;;;;;;9.51;100.00;100349.88;5043789;28;20444;-73
2023/05/05 06:25:49;;;;;;;1999.90;353.85;;;;;;;9.41;100.00;100298.56;5043933;28;20035;-72
2023/05/05 06:28:15;;;;;;;1999.90;481.27;;;;;;;10.00;100.00;100325.88;5045843;28;20048;-72
2023/05/05 06:30:40;;;;;;;1999.90;695.60;;;;;;;9.81;100.00;100332.41;5044438;28;20029;-72
2023/05/05 06:33:08;;;;;;;1999.90;677.60;;;;;;;9.65;100.00;100322.56;5044966;28;20468;-73
2023/05/05 06:35:34;;;;;;;1999.90;557.55;;;;;;;9.56;100.00;100291.59;5045367;28;20041;-68
2023/05/05 06:37:59;;;;;;;1999.90;408.67;;;;;;;9.50;100.00;100260.25;5060552;28;20055;-71
2023/05/05 06:40:25;;;;;;;1999.90;508.57;;;;;;;9.97;100.00;100341.38;5044488;28;20112;-73
2023/05/05 06:42:50;;;;;;;1999.90;872.67;;;;;;;9.50;100.00;100214.97;5043557;28;20506;-71
2023/05/05 06:45:21;;;;;;;1999.90;745.75;;;;;;;9.47;100.00;100303.25;5043793;28;20037;-73
2023/05/05 06:47:46;;;;;;;1999.90;743.27;;;;;;;9.70;100.00;100328.22;5043991;28;20104;-73
2023/05/05 06:50:11;;;;;;;1999.90;791.57;;;;;;;9.54;100.00;100197.66;5044052;28;20036;-73
2023/05/05 06:52:37;;;;;;;1999.90;669.00;;;;;;;9.51;100.00;100291.25;5044902;28;20032;-72
2023/05/05 06:55:03;;;;;;;1999.90;999.90;;;;;;;9.27;100.00;100196.16;5060439;28;20032;-71
2023/05/05 06:57:28;;;;;;;1999.90;882.38;;;;;;;9.03;100.00;100291.03;5045110;28;20456;-69
2023/05/05 06:59:54;;;;;;;1999.90;716.43;;;;;;;8.74;100.00;100275.50;5043762;28;20044;-69
2023/05/05 07:02:19;;;;;;;1999.90;434.23;;;;;;;8.92;100.00;100357.91;5043423;28;20056;-71
2023/05/05 07:04:45;;;;;;;1999.90;555.13;;;;;;;9.03;100.00;100506.72;5040146;28;20033;-72
2023/05/05 07:07:10;;;;;;;1999.90;826.07;;;;;;;8.79;100.00;100408.94;5044692;28;20036;-73
2023/05/05 07:09:36;;;;;;;1999.90;825.58;;;;;;;9.23;100.00;100557.94;5042900;28;20040;-73
2023/05/05 07:12:02;;;;;;;1823.33;285.60;;;;;;;9.45;100.00;100577.84;5042923;28;20047;-70
2023/05/05 07:14:28;;;;;;;1999.90;879.03;;;;;;;9.19;100.00;100371.97;5042925;28;20032;-72
2023/05/05 07:16:53;;;;;;;1999.90;293.27;;;;;;;9.26;100.00;100408.44;5043119;28;20486;-72
2023/05/05 07:19:18;;;;;;;1999.90;783.33;;;;;;;8.88;100.00;100345.91;5060054;28;20778;-71
2023/05/05 07:21:44;;;;;;;1999.90;661.30;;;;;;;9.11;100.00;100462.47;5042469;28;20024;-68
2023/05/05 07:24:09;;;;;;;1999.90;698.63;;;;;;;9.13;100.00;100432.06;5044095;28;20036;-70
2023/05/05 07:26:35;;;;;;;1999.90;719.43;;;;;;;9.44;100.00;100434.16;5043966;28;20028;-73
2023/05/05 07:29:01;;;;;;;1999.90;571.27;;;;;;;9.88;100.00;100417.88;5044464;28;20356;-72
2023/05/05 07:31:27;;;;;;;1999.90;656.45;;;;;;;10.09;100.00;100420.91;5043693;28;20075;-72
2023/05/05 07:33:52;;;;;;;1999.90;836.27;;;;;;;9.94;100.00;100311.38;5043979;28;20060;-72
2023/05/05 07:36:18;;;;;;;1999.90;663.63;;;;;;;10.01;100.00;100284.88;5059910;28;20033;-73
2023/05/05 07:38:43;;;;;;;1999.90;645.42;;;;;;;10.04;100.00;100215.16;5044429;28;20040;-71
2023/05/05 07:41:10;;;;;;;1999.90;806.27;;;;;;;9.97;100.00;100221.38;5042933;28;20029;-69
2023/05/05 07:43:36;;;;;;;1999.90;662.00;;;;;;;10.03;100.00;100242.84;5043530;28;20082;-71
2023/05/05 07:46:02;;;;;;;1999.90;737.38;;;;;;;9.79;100.00;100261.59;5059465;28;20068;-71
2023/05/05 07:48:28;;;;;;;1999.90;801.42;;;;;;;9.47;100.00;100194.00;5043430;28;20115;-71
2023/05/05 07:50:54;;;;;;;1999.90;658.65;;;;;;;9.73;100.00;100205.25;5059176;28;20041;-71
2023/05/05 07:53:19;;;;;;;1999.90;704.47;;;;;;;10.12;100.00;100345.03;5042650;28;20027;-72
2023/05/05 07:55:45;;;;;;;1999.90;744.77;;;;;;;10.06;100.00;100295.84;5042661;28;20484;-73
2023/05/05 07:58:10;;;;;;;1999.90;999.90;;;;;;;10.00;100.00;100304.53;5076286;28;20033;-72
2023/05/05 08:00:36;;;;;;;1999.90;604.92;;;;;;;10.18;100.00;100371.00;5044430;28;20029;-71
2023/05/05 08:03:01;;;;;;;1999.90;648.58;;;;;;;10.90;100.00;100488.53;5043747;28;20064;-72
2023/05/05 08:05:27;;;;;;;1999.90;471.23;;;;;;;11.73;100.00;100395.41;5042612;28;20118;-72
2023/05/05 08:07:52;;;;;;;1999.90;661.73;;;;;;;11.37;98.31;100036.00;5044194;28;20033;-71
2023/05/05 08:10:18;;;;;;;1999.90;716.27;;;;;;;10.93;98.30;99991.44;5042545;28;20058;-72
2023/05/05 08:12:43;;;;;;;1999.90;899.90;;;;;;;11.05;98.54;100063.91;5043443;28;20831;-70
2023/05/05 08:15:09;;;;;;;1999.90;605.47;;;;;;;11.28;97.24;100041.63;5042876;28;20033;-69
2023/05/05 08:17:54;;;;;;;1999.90;622.58;;;;;;;11.36;95.77;99923.97;5044445;28;20043;-72
2023/05/05 08:20:20;;;;;;;1999.90;659.75;;;;;;;11.62;96.82;100114.06;5037779;28;20037;-73
2023/05/05 08:22:46;;;;;;;1999.90;642.22;;;;;;;11.36;95.63;99953.34;5059086;28;20322;-72
2023/05/05 08:25:12;;;;;;;1999.90;855.50;;;;;;;10.82;95.75;99854.88;5043119;28;20044;-73
2023/05/05 08:27:39;;;;;;;1999.90;647.13;;;;;;;10.74;97.79;100053.34;5043563;28;20035;-72
2023/05/05 08:30:05;;;;;;;1999.90;680.80;;;;;;;10.76;100.00;100347.69;5025978;28;20040;-72
2023/05/05 08:32:31;;;;;;;1999.90;792.58;;;;;;;10.35;100.00;100214.44;5059127;28;20075;-71
2023/05/05 08:34:56;;;;;;;1999.90;984.90;;;;;;;10.07;100.00;100297.53;5047045;28;20500;-72
2023/05/05 08:37:22;;;;;;;1999.90;847.87;;;;;;;10.42;100.00;100398.69;5047157;28;20033;-73
2023/05/05 08:39:47;;;;;;;1999.90;838.77;;;;;;;10.14;100.00;100437.22;5046252;28;20605;-71
2023/05/05 08:42:12;;;;;;;1999.90;625.40;;;;;;;10.22;100.00;100521.75;5047119;28;20075;-73
2023/05/05 08:44:38;;;;;;;1999.90;637.47;;;;;;;10.28;100.00;100530.94;5047671;28;20041;-71
2023/05/05 08:47:04;;;;;;;1999.90;511.60;;;;;;;10.45;100.00;100527.31;5047400;28;20086;-76
2023/05/05 08:49:35;;;;;;;1999.90;649.50;;;;;;;10.75;100.00;100629.94;5047159;28;20463;-69
2023/05/05 08:52:03;;;;;;;1999.90;572.15;;;;;;;10.85;100.00;100658.31;5047091;28;20045;-74
2023/05/05 08:54:31;;;;;;;1999.90;727.58;;;;;;;11.20;100.00;100705.22;5045923;28;20024;-75
2023/05/05 08:57:00;;;;;;;1999.90;999.90;;;;;;;11.50;100.00;100534.44;5046630;28;20120;-70
2023/05/05 08:59:29;;;;;;;1999.90;527.50;;;;;;;13.04;99.13;100671.00;5046061;28;20032;-73
2023/05/05 09:01:56;;;;;;;1999.90;625.88;;;;;;;12.72;94.96;100240.03;5046955;28;20258;-72
2023/05/05 09:04:22;;;;;;;1999.90;520.20;;;;;;;13.12;94.94;100401.25;5046309;28;20063;-73
2023/05/05 09:06:47;;;;;;;1999.90;784.75;;;;;;;12.36;93.47;100125.69;5046799;28;20459;-71
2023/05/05 09:09:13;;;;;;;1999.90;913.70;;;;;;;12.46;93.50;100169.06;5045934;28;20075;-71
2023/05/05 09:11:40;;;;;;;1999.90;976.88;;;;;;;12.23;91.41;99960.47;5046728;28;20291;-77
2023/05/05 09:14:06;;;;;;;1999.90;789.42;;;;;;;13.04;92.61;100293.13;5045038;28;20091;-72
2023/05/05 09:16:31;;;;;;;1999.90;656.45;;;;;;;12.95;88.72;99878.97;5045383;28;20044;-71
2023/05/05 09:19:02;;;;;;;1999.90;720.43;;;;;;;13.23;88.75;100033.53;5045594;28;20028;-71
2023/05/05 09:21:28;;;;;;;1999.90;657.40;;;;;;;12.93;87.76;99834.66;5046821;28;20116;-73
2023/05/05 09:24:07;;;;;;;1999.90;799.35;;;;;;;12.48;89.08;99882.41;5061232;28;20518;-72
2023/05/05 09:26:34;;;;;;;1999.90;841.83;;;;;;;12.26;88.70;99836.97;5055953;28;20087;-68
2023/05/05 09:29:01;;;;;;;1999.90;879.08;;;;;;;12.55;90.87;100194.72;5044770;28;20025;-71
2023/05/05 09:31:29;;;;;;;1999.90;774.45;;;;;;;12.06;91.23;100115.09;5045471;28;20033;-72
2023/05/05 09:33:59;;;;;;;1999.90;818.50;;;;;;;12.28;90.99;100185.53;5045672;28;20028;-73
2023/05/05 09:36:48;;;;;;;1999.90;754.13;;;;;;;12.43;89.77;100035.56;5061979;28;20404;-72
2023/05/05 09:39:17;;;;;;;1999.90;751.97;;;;;;;13.24;88.40;100158.47;5038461;28;20594;-76
2023/05/05 09:41:43;;;;;;;1999.90;874.17;;;;;;;13.44;86.88;100064.81;5046565;28;20083;-70
2023/05/05 09:44:14;;;;;;;1999.90;765.00;;;;;;;13.30;85.82;99913.78;5046292;28;21018;-74
2023/05/05 09:46:51;;;;;;;1999.90;908.03;;;;;;;13.59;85.92;100057.47;5043654;28;20037;-70
2023/05/05 09:49:25;;;;;;;1999.90;538.42;;;;;;;12.63;85.65;99766.13;5046535;28;20045;-70
2023/05/05 09:51:52;;;;;;;1999.90;737.65;;;;;;;12.51;86.78;99866.78;5046049;28;20095;-69
2023/05/05 09:54:21;;;;;;;1999.90;901.40;;;;;;;12.95;85.81;99899.59;5061523;28;20033;-74
2023/05/05 09:56:46;;;;;;;1999.90;762.25;;;;;;;13.14;86.44;100067.69;5046329;28;20473;-70
2023/05/05 09:59:12;;;;;;;1999.90;804.73;;;;;;;12.52;87.70;100069.22;5046420;28;20043;-70
2023/05/05 10:01:38;;;;;;;1999.90;673.50;;;;;;;12.65;86.33;99910.53;5046199;28;20060;-73
2023/05/05 10:04:03;;;;;;;1999.90;651.05;;;;;;;12.86;86.98;100142.69;5045963;28;20056;-72
2023/05/05 10:06:40;;;;;;;1999.90;826.80;;;;;;;13.35;84.34;99945.38;5045093;28;20119;-75
2023/05/05 10:09:05;;;;;;;1999.90;653.08;;;;;;;13.87;84.76;100155.84;5045996;28;20045;-74
2023/05/05 10:11:33;;;;;;;1999.90;611.50;;;;;;;13.55;83.02;99897.16;5044322;28;20020;-70
2023/05/05 10:13:58;;;;;;;1999.90;582.72;;;;;;;13.98;82.55;99967.41;5045252;28;20064;-73
2023/05/05 10:16:25;;;;;;;1999.90;774.13;;;;;;;13.59;82.05;99804.53;5045786;28;20071;-77
2023/05/05 10:18:50;;;;;;;1999.90;709.33;;;;;;;13.73;80.68;99731.91;5045688;28;20287;-74
2023/05/05 10:21:19;;;;;;;1999.90;754.17;;;;;;;13.84;81.55;99875.34;5045658;28;20025;-71
2023/05/05 10:23:51;;;;;;;1999.90;666.90;;;;;;;13.84;80.13;99674.13;5060184;28;20044;-72
2023/05/05 10:26:18;;;;;;;1999.90;526.30;;;;;;;13.35;81.16;99739.75;5038629;28;20041;-71
2023/05/05 10:28:49;;;;;;;1999.90;696.03;;;;;;;13.70;80.72;99806.63;5046130;28;20140;-74
2023/05/05 10:31:29;;;;;;;1999.90;689.78;;;;;;;13.28;80.24;99611.09;5033214;28;20489;-70
2023/05/05 10:34:20;;;;;;;1999.90;724.08;;;;;;;13.46;79.40;99586.31;5041941;28;20029;-73
2023/05/05 10:36:47;;;;;;;1999.90;646.20;;;;;;;13.92;81.79;100095.16;5060632;28;20182;-71
2023/05/05 10:39:15;;;;;;;1999.90;694.10;;;;;;;13.15;80.83;99669.19;5038043;28;20051;-73
2023/05/05 10:41:40;;;;;;;1999.90;560.58;;;;;;;13.32;80.44;99726.75;5044953;28;20044;-72
2023/05/05 10:44:10;;;;;;;1999.90;699.22;;;;;;;13.98;79.05;99701.75;5044797;28;20407;-70
2023/05/05 10:46:35;;;;;;;1999.90;637.08;;;;;;;14.10;78.05;99691.19;5045317;28;20044;-72
2023/05/05 10:49:26;;;;;;;1999.90;543.45;;;;;;;12.79;80.03;99528.44;5045128;28;20017;-71
2023/05/05 10:52:08;;;;;;;1999.90;676.13;;;;;;;12.58;81.40;99712.34;5043357;28;20040;-71
2023/05/05 10:54:38;;;;;;;1999.90;623.95;;;;;;;13.57;80.81;99962.16;5043638;28;20037;-77
2023/05/05 10:57:09;;;;;;;1999.90;541.50;;;;;;;13.71;78.72;99690.25;5059847;28;20106;-72
2023/05/05 10:59:34;;;;;;;1999.90;451.58;;;;;;;14.10;78.99;99914.78;5045194;28;20032;-72
2023/05/05 11:02:00;;;;;;;1999.90;518.03;;;;;;;14.40;76.67;99730.94;5043556;28;20506;-75
2023/05/05 11:04:25;;;;;;;1999.90;532.03;;;;;;;14.11;76.55;99597.03;5045255;28;20108;-70
2023/05/05 11:07:24;;;;;;;1999.90;466.73;;;;;;;14.11;76.34;99551.41;5043342;28;20044;-71